sensor_id;sensor_type;location;lat;lon;timestamp;temperature;humidity
26505;DHT22;19493;48.042;7.584;2023-05-29T00:01:07;15.20;99.90
26505;DHT22;19493;48.042;7.584;2023-05-29T00:03:34;15.20;99.90
26505;DHT22;19493;48.042;7.584;2023-05-29T00:06:02;15.10;99.90
26505;DHT22;19493;48.042;7.584;2023-05-29T00:08:28;15.10;99.90
26505;DHT22;19493;48.042;7.584;2023-05-29T00:10:53;15.10;99.90
26505;DHT22;19493;48.042;7.584;2023-05-29T00:13:19;15.10;99.90
26505;DHT22;19493;48.042;7.584;2023-05-29T00:15:46;15.20;99.90
26505;DHT22;19493;48.042;7.584;2023-05-29T00:18:11;15.10;99.90
26505;DHT22;19493;48.042;7.584;2023-05-29T00:20:37;15.00;99.90
26505;DHT22;19493;48.042;7.584;2023-05-29T00:23:03;15.00;99.90
26505;DHT22;19493;48.042;7.584;2023-05-29T00:25:29;15.00;99.90
26505;DHT22;19493;48.042;7.584;2023-05-29T00:27:55;15.00;99.90
26505;DHT22;19493;48.042;7.584;2023-05-29T00:30:20;14.90;99.90
26505;DHT22;19493;48.042;7.584;2023-05-29T00:32:46;14.90;99.90
26505;DHT22;19493;48.042;7.584;2023-05-29T00:35:12;14.90;99.90
26505;DHT22;19493;48.042;7.584;2023-05-29T00:37:37;14.90;99.90
26505;DHT22;19493;48.042;7.584;2023-05-29T00:40:03;14.90;99.90
26505;DHT22;19493;48.042;7.584;2023-05-29T00:42:29;14.90;99.90
26505;DHT22;19493;48.042;7.584;2023-05-29T00:44:54;14.90;99.90
26505;DHT22;19493;48.042;7.584;2023-05-29T00:47:20;14.80;99.90
26505;DHT22;19493;48.042;7.584;2023-05-29T00:49:46;14.70;99.90
26505;DHT22;19493;48.042;7.584;2023-05-29T00:52:12;14.70;99.90
26505;DHT22;19493;48.042;7.584;2023-05-29T00:54:38;14.70;99.90
26505;DHT22;19493;48.042;7.584;2023-05-29T00:57:04;14.70;99.90
26505;DHT22;19493;48.042;7.584;2023-05-29T00:59:32;14.70;99.90
26505;DHT22;19493;48.042;7.584;2023-05-29T01:01:59;14.70;99.90
26505;DHT22;19493;48.042;7.584;2023-05-29T01:04:28;14.60;99.90
26505;DHT22;19493;48.042;7.584;2023-05-29T01:06:55;14.60;99.90
26505;DHT22;19493;48.042;7.584;2023-05-29T01:09:21;14.60;99.90
26505;DHT22;19493;48.042;7.584;2023-05-29T01:20:50;14.40;99.90
26505;DHT22;19493;48.042;7.584;2023-05-29T01:29:07;14.40;99.90
26505;DHT22;19493;48.042;7.584;2023-05-29T01:31:33;14.30;99.90
26505;DHT22;19493;48.042;7.584;2023-05-29T01:34:00;14.30;99.90
26505;DHT22;19493;48.042;7.584;2023-05-29T01:36:26;14.30;99.90
26505;DHT22;19493;48.042;7.584;2023-05-29T01:38:53;14.20;99.90
26505;DHT22;19493;48.042;7.584;2023-05-29T01:41:21;14.10;99.90
26505;DHT22;19493;48.042;7.584;2023-05-29T01:43:47;14.00;99.90
26505;DHT22;19493;48.042;7.584;2023-05-29T01:46:14;13.90;99.90
26505;DHT22;19493;48.042;7.584;2023-05-29T01:48:41;13.80;99.90
26505;DHT22;19493;48.042;7.584;2023-05-29T01:51:07;13.80;99.90
26505;DHT22;19493;48.042;7.584;2023-05-29T01:53:33;13.80;99.90
26505;DHT22;19493;48.042;7.584;2023-05-29T01:55:59;13.70;99.90
26505;DHT22;19493;48.042;7.584;2023-05-29T01:58:25;13.70;99.90
26505;DHT22;19493;48.042;7.584;2023-05-29T02:00:51;13.70;99.90
26505;DHT22;19493;48.042;7.584;2023-05-29T02:03:17;13.70;99.90
26505;DHT22;19493;48.042;7.584;2023-05-29T02:05:43;13.70;99.90
26505;DHT22;19493;48.042;7.584;2023-05-29T02:08:08;13.70;99.90
26505;DHT22;19493;48.042;7.584;2023-05-29T02:10:34;13.70;99.90
26505;DHT22;19493;48.042;7.584;2023-05-29T02:12:59;13.70;99.90
26505;DHT22;19493;48.042;7.584;2023-05-29T02:15:25;13.70;99.90
26505;DHT22;19493;48.042;7.584;2023-05-29T02:17:50;13.70;99.90
26505;DHT22;19493;48.042;7.584;2023-05-29T02:20:17;13.60;99.90
26505;DHT22;19493;48.042;7.584;2023-05-29T02:22:43;13.60;99.90
26505;DHT22;19493;48.042;7.584;2023-05-29T02:25:08;13.60;99.90
26505;DHT22;19493;48.042;7.584;2023-05-29T02:27:34;13.50;99.90
26505;DHT22;19493;48.042;7.584;2023-05-29T02:29:59;13.50;99.90
26505;DHT22;19493;48.042;7.584;2023-05-29T02:32:25;13.50;99.90
26505;DHT22;19493;48.042;7.584;2023-05-29T02:34:54;13.40;99.90
26505;DHT22;19493;48.042;7.584;2023-05-29T02:37:19;13.40;99.90
26505;DHT22;19493;48.042;7.584;2023-05-29T02:39:45;13.30;99.90
26505;DHT22;19493;48.042;7.584;2023-05-29T02:42:10;13.20;99.90
26505;DHT22;19493;48.042;7.584;2023-05-29T02:44:36;13.20;99.90
26505;DHT22;19493;48.042;7.584;2023-05-29T02:47:01;13.10;99.90
26505;DHT22;19493;48.042;7.584;2023-05-29T02:49:27;13.00;99.90
26505;DHT22;19493;48.042;7.584;2023-05-29T02:51:52;13.00;99.90
26505;DHT22;19493;48.042;7.584;2023-05-29T02:54:23;13.00;99.90
26505;DHT22;19493;48.042;7.584;2023-05-29T02:56:51;12.90;99.90
26505;DHT22;19493;48.042;7.584;2023-05-29T02:59:16;12.90;99.90
26505;DHT22;19493;48.042;7.584;2023-05-29T03:01:42;13.00;99.90
26505;DHT22;19493;48.042;7.584;2023-05-29T03:04:11;12.90;99.90
26505;DHT22;19493;48.042;7.584;2023-05-29T03:06:37;12.90;99.90
26505;DHT22;19493;48.042;7.584;2023-05-29T03:09:03;12.90;99.90
26505;DHT22;19493;48.042;7.584;2023-05-29T03:11:31;12.90;99.90
26505;DHT22;19493;48.042;7.584;2023-05-29T03:13:56;13.00;99.90
26505;DHT22;19493;48.042;7.584;2023-05-29T03:16:22;13.00;99.90
26505;DHT22;19493;48.042;7.584;2023-05-29T03:18:47;13.00;99.90
26505;DHT22;19493;48.042;7.584;2023-05-29T03:21:13;12.90;99.90
26505;DHT22;19493;48.042;7.584;2023-05-29T03:23:39;12.90;99.90
26505;DHT22;19493;48.042;7.584;2023-05-29T03:26:05;12.90;99.90
26505;DHT22;19493;48.042;7.584;2023-05-29T03:28:31;12.80;99.90
26505;DHT22;19493;48.042;7.584;2023-05-29T03:30:56;12.90;99.90
26505;DHT22;19493;48.042;7.584;2023-05-29T03:33:22;12.90;99.90
26505;DHT22;19493;48.042;7.584;2023-05-29T03:35:48;13.00;99.90
26505;DHT22;19493;48.042;7.584;2023-05-29T03:38:13;13.00;99.90
26505;DHT22;19493;48.042;7.584;2023-05-29T03:40:39;13.00;99.90
26505;DHT22;19493;48.042;7.584;2023-05-29T03:43:04;13.00;99.90
26505;DHT22;19493;48.042;7.584;2023-05-29T03:45:30;13.00;99.90
26505;DHT22;19493;48.042;7.584;2023-05-29T03:47:55;13.00;99.90
26505;DHT22;19493;48.042;7.584;2023-05-29T03:50:21;13.00;99.90
26505;DHT22;19493;48.042;7.584;2023-05-29T03:52:46;13.00;99.90
26505;DHT22;19493;48.042;7.584;2023-05-29T03:55:12;13.00;99.90
26505;DHT22;19493;48.042;7.584;2023-05-29T03:57:41;13.00;99.90
26505;DHT22;19493;48.042;7.584;2023-05-29T04:00:11;13.00;99.90
26505;DHT22;19493;48.042;7.584;2023-05-29T04:02:38;13.00;99.90
26505;DHT22;19493;48.042;7.584;2023-05-29T04:05:05;13.00;99.90
26505;DHT22;19493;48.042;7.584;2023-05-29T04:07:32;12.90;99.90
26505;DHT22;19493;48.042;7.584;2023-05-29T04:09:57;12.90;99.90
26505;DHT22;19493;48.042;7.584;2023-05-29T04:12:23;12.90;99.90
26505;DHT22;19493;48.042;7.584;2023-05-29T04:14:48;13.00;99.90
26505;DHT22;19493;48.042;7.584;2023-05-29T04:17:14;13.00;99.90
26505;DHT22;19493;48.042;7.584;2023-05-29T04:19:39;13.00;99.90
26505;DHT22;19493;48.042;7.584;2023-05-29T04:22:05;13.00;99.90
26505;DHT22;19493;48.042;7.584;2023-05-29T04:24:31;13.00;99.90
26505;DHT22;19493;48.042;7.584;2023-05-29T04:26:57;13.00;99.90
26505;DHT22;19493;48.042;7.584;2023-05-29T04:29:26;13.00;99.90
26505;DHT22;19493;48.042;7.584;2023-05-29T04:31:51;13.10;99.90
26505;DHT22;19493;48.042;7.584;2023-05-29T04:34:17;13.10;99.90
26505;DHT22;19493;48.042;7.584;2023-05-29T04:36:43;13.10;99.90
26505;DHT22;19493;48.042;7.584;2023-05-29T04:39:09;13.20;99.90
26505;DHT22;19493;48.042;7.584;2023-05-29T04:41:34;13.20;99.90
26505;DHT22;19493;48.042;7.584;2023-05-29T04:44:01;13.30;99.90
26505;DHT22;19493;48.042;7.584;2023-05-29T04:46:26;13.30;99.90
26505;DHT22;19493;48.042;7.584;2023-05-29T04:48:52;13.40;99.90
26505;DHT22;19493;48.042;7.584;2023-05-29T04:51:22;13.40;99.90
26505;DHT22;19493;48.042;7.584;2023-05-29T04:53:48;13.50;99.90
26505;DHT22;19493;48.042;7.584;2023-05-29T04:56:14;13.50;99.90
26505;DHT22;19493;48.042;7.584;2023-05-29T04:58:41;13.50;99.90
26505;DHT22;19493;48.042;7.584;2023-05-29T05:01:07;13.60;99.90
26505;DHT22;19493;48.042;7.584;2023-05-29T05:03:33;13.70;99.90
26505;DHT22;19493;48.042;7.584;2023-05-29T05:06:02;13.70;99.90
26505;DHT22;19493;48.042;7.584;2023-05-29T05:08:29;13.80;99.90
26505;DHT22;19493;48.042;7.584;2023-05-29T05:10:59;13.90;99.90
26505;DHT22;19493;48.042;7.584;2023-05-29T05:13:25;14.00;99.90
26505;DHT22;19493;48.042;7.584;2023-05-29T05:15:50;14.10;99.90
26505;DHT22;19493;48.042;7.584;2023-05-29T05:18:16;14.10;99.90
26505;DHT22;19493;48.042;7.584;2023-05-29T05:20:42;14.20;99.90
26505;DHT22;19493;48.042;7.584;2023-05-29T05:23:07;14.30;99.90
26505;DHT22;19493;48.042;7.584;2023-05-29T05:25:33;14.40;99.90
26505;DHT22;19493;48.042;7.584;2023-05-29T05:28:01;14.40;99.90
26505;DHT22;19493;48.042;7.584;2023-05-29T05:30:26;14.50;99.90
26505;DHT22;19493;48.042;7.584;2023-05-29T05:32:52;14.50;99.90
26505;DHT22;19493;48.042;7.584;2023-05-29T05:35:17;14.60;99.90
26505;DHT22;19493;48.042;7.584;2023-05-29T05:37:43;14.60;99.90
26505;DHT22;19493;48.042;7.584;2023-05-29T05:40:08;14.70;99.90
26505;DHT22;19493;48.042;7.584;2023-05-29T05:42:34;14.80;99.90
26505;DHT22;19493;48.042;7.584;2023-05-29T05:45:01;14.80;99.90
26505;DHT22;19493;48.042;7.584;2023-05-29T05:47:26;14.90;99.90
26505;DHT22;19493;48.042;7.584;2023-05-29T05:49:53;14.90;99.90
26505;DHT22;19493;48.042;7.584;2023-05-29T05:52:19;15.00;99.90
26505;DHT22;19493;48.042;7.584;2023-05-29T05:54:45;15.00;99.90
26505;DHT22;19493;48.042;7.584;2023-05-29T05:57:10;15.10;99.90
26505;DHT22;19493;48.042;7.584;2023-05-29T05:59:36;15.20;99.90
26505;DHT22;19493;48.042;7.584;2023-05-29T06:02:02;15.20;99.90
26505;DHT22;19493;48.042;7.584;2023-05-29T06:04:29;15.30;99.90
26505;DHT22;19493;48.042;7.584;2023-05-29T06:06:55;15.30;99.90
26505;DHT22;19493;48.042;7.584;2023-05-29T06:09:20;15.40;99.90
26505;DHT22;19493;48.042;7.584;2023-05-29T06:11:46;15.50;99.90
26505;DHT22;19493;48.042;7.584;2023-05-29T06:14:15;15.50;99.90
26505;DHT22;19493;48.042;7.584;2023-05-29T06:16:41;15.60;99.90
26505;DHT22;19493;48.042;7.584;2023-05-29T06:19:07;15.60;99.90
26505;DHT22;19493;48.042;7.584;2023-05-29T06:21:33;15.70;99.90
26505;DHT22;19493;48.042;7.584;2023-05-29T06:23:59;15.80;99.90
26505;DHT22;19493;48.042;7.584;2023-05-29T06:26:25;15.90;99.90
26505;DHT22;19493;48.042;7.584;2023-05-29T06:28:50;16.00;99.90
26505;DHT22;19493;48.042;7.584;2023-05-29T06:31:16;16.10;99.90
26505;DHT22;19493;48.042;7.584;2023-05-29T06:33:42;16.20;99.90
26505;DHT22;19493;48.042;7.584;2023-05-29T06:36:08;16.30;99.90
26505;DHT22;19493;48.042;7.584;2023-05-29T06:38:33;16.40;99.90
26505;DHT22;19493;48.042;7.584;2023-05-29T06:40:59;16.40;99.90
26505;DHT22;19493;48.042;7.584;2023-05-29T06:43:25;16.60;99.90
26505;DHT22;19493;48.042;7.584;2023-05-29T06:45:51;16.60;99.90
26505;DHT22;19493;48.042;7.584;2023-05-29T06:48:16;16.70;99.90
26505;DHT22;19493;48.042;7.584;2023-05-29T06:50:42;16.80;99.90
26505;DHT22;19493;48.042;7.584;2023-05-29T06:53:07;17.00;99.90
26505;DHT22;19493;48.042;7.584;2023-05-29T06:55:33;17.10;99.90
26505;DHT22;19493;48.042;7.584;2023-05-29T06:57:58;17.20;99.90
26505;DHT22;19493;48.042;7.584;2023-05-29T07:00:24;17.30;99.90
26505;DHT22;19493;48.042;7.584;2023-05-29T07:02:50;17.40;99.90
26505;DHT22;19493;48.042;7.584;2023-05-29T07:05:16;17.40;99.90
26505;DHT22;19493;48.042;7.584;2023-05-29T07:07:42;17.50;99.90
26505;DHT22;19493;48.042;7.584;2023-05-29T07:10:07;17.70;99.90
26505;DHT22;19493;48.042;7.584;2023-05-29T07:12:33;17.80;99.90
26505;DHT22;19493;48.042;7.584;2023-05-29T07:14:58;17.90;99.90
26505;DHT22;19493;48.042;7.584;2023-05-29T07:17:24;18.00;99.90
26505;DHT22;19493;48.042;7.584;2023-05-29T07:19:50;18.10;99.90
26505;DHT22;19493;48.042;7.584;2023-05-29T07:22:16;18.30;99.90
26505;DHT22;19493;48.042;7.584;2023-05-29T07:24:41;18.40;99.90
26505;DHT22;19493;48.042;7.584;2023-05-29T07:27:07;18.40;99.90
26505;DHT22;19493;48.042;7.584;2023-05-29T07:29:32;18.60;99.90
26505;DHT22;19493;48.042;7.584;2023-05-29T07:31:58;18.80;99.90
26505;DHT22;19493;48.042;7.584;2023-05-29T07:34:23;18.80;99.90
26505;DHT22;19493;48.042;7.584;2023-05-29T07:37:04;18.90;99.90
26505;DHT22;19493;48.042;7.584;2023-05-29T07:39:30;19.10;99.90
26505;DHT22;19493;48.042;7.584;2023-05-29T07:41:56;19.30;99.90
26505;DHT22;19493;48.042;7.584;2023-05-29T07:44:22;19.40;99.90
26505;DHT22;19493;48.042;7.584;2023-05-29T07:46:48;19.50;99.90
26505;DHT22;19493;48.042;7.584;2023-05-29T07:49:14;19.70;99.90
26505;DHT22;19493;48.042;7.584;2023-05-29T07:51:40;19.90;99.10
26505;DHT22;19493;48.042;7.584;2023-05-29T07:54:05;20.10;98.80
26505;DHT22;19493;48.042;7.584;2023-05-29T07:56:31;20.10;98.10
26505;DHT22;19493;48.042;7.584;2023-05-29T07:58:59;20.30;97.90
26505;DHT22;19493;48.042;7.584;2023-05-29T08:01:24;20.50;96.60
26505;DHT22;19493;48.042;7.584;2023-05-29T08:03:51;20.60;95.50
26505;DHT22;19493;48.042;7.584;2023-05-29T08:06:17;20.50;93.70
26505;DHT22;19493;48.042;7.584;2023-05-29T08:08:42;20.50;94.10
26505;DHT22;19493;48.042;7.584;2023-05-29T08:11:09;20.60;93.50
26505;DHT22;19493;48.042;7.584;2023-05-29T08:13:35;20.70;93.00
26505;DHT22;19493;48.042;7.584;2023-05-29T08:16:00;20.90;92.80
26505;DHT22;19493;48.042;7.584;2023-05-29T08:18:26;20.90;91.60
26505;DHT22;19493;48.042;7.584;2023-05-29T08:20:52;20.90;90.90
26505;DHT22;19493;48.042;7.584;2023-05-29T08:23:18;21.00;92.20
26505;DHT22;19493;48.042;7.584;2023-05-29T08:25:44;21.30;91.90
26505;DHT22;19493;48.042;7.584;2023-05-29T08:28:10;21.50;89.50
26505;DHT22;19493;48.042;7.584;2023-05-29T08:30:36;21.50;87.00
26505;DHT22;19493;48.042;7.584;2023-05-29T08:33:03;21.60;87.70
26505;DHT22;19493;48.042;7.584;2023-05-29T08:35:29;21.70;88.20
26505;DHT22;19493;48.042;7.584;2023-05-29T08:37:54;21.90;85.30
26505;DHT22;19493;48.042;7.584;2023-05-29T08:40:20;21.70;85.30
26505;DHT22;19493;48.042;7.584;2023-05-29T08:43:08;21.90;86.40
26505;DHT22;19493;48.042;7.584;2023-05-29T08:45:40;22.10;85.50
26505;DHT22;19493;48.042;7.584;2023-05-29T08:48:09;22.10;83.70
26505;DHT22;19493;48.042;7.584;2023-05-29T08:50:36;22.10;82.10
26505;DHT22;19493;48.042;7.584;2023-05-29T08:53:03;22.30;83.60
26505;DHT22;19493;48.042;7.584;2023-05-29T08:55:29;22.70;81.60
26505;DHT22;19493;48.042;7.584;2023-05-29T08:57:55;22.80;79.10
26505;DHT22;19493;48.042;7.584;2023-05-29T09:00:22;22.90;79.10
26505;DHT22;19493;48.042;7.584;2023-05-29T09:02:53;23.50;77.70
26505;DHT22;19493;48.042;7.584;2023-05-29T09:05:21;24.00;72.80
26505;DHT22;19493;48.042;7.584;2023-05-29T09:10:15;25.70;70.00
26505;DHT22;19493;48.042;7.584;2023-05-29T09:12:41;26.40;62.50
26505;DHT22;19493;48.042;7.584;2023-05-29T09:15:20;26.90;60.80
26505;DHT22;19493;48.042;7.584;2023-05-29T09:17:52;27.40;58.80
26505;DHT22;19493;48.042;7.584;2023-05-29T09:20:19;27.90;57.20
26505;DHT22;19493;48.042;7.584;2023-05-29T09:23:01;27.70;56.10
26505;DHT22;19493;48.042;7.584;2023-05-29T09:25:29;27.70;55.00
26505;DHT22;19493;48.042;7.584;2023-05-29T09:27:57;27.60;54.50
26505;DHT22;19493;48.042;7.584;2023-05-29T09:30:38;27.70;52.80
26505;DHT22;19493;48.042;7.584;2023-05-29T09:33:06;27.60;54.20
26505;DHT22;19493;48.042;7.584;2023-05-29T09:35:46;27.90;51.80
26505;DHT22;19493;48.042;7.584;2023-05-29T09:38:16;28.20;51.30
26505;DHT22;19493;48.042;7.584;2023-05-29T09:40:42;28.00;51.10
26505;DHT22;19493;48.042;7.584;2023-05-29T09:45:38;28.00;50.90
26505;DHT22;19493;48.042;7.584;2023-05-29T09:48:05;28.20;50.70
26505;DHT22;19493;48.042;7.584;2023-05-29T09:50:31;28.70;48.50
26505;DHT22;19493;48.042;7.584;2023-05-29T09:52:59;29.20;48.70
26505;DHT22;19493;48.042;7.584;2023-05-29T09:55:27;28.70;47.40
26505;DHT22;19493;48.042;7.584;2023-05-29T09:57:54;28.70;48.50
26505;DHT22;19493;48.042;7.584;2023-05-29T10:00:20;29.20;47.80
26505;DHT22;19493;48.042;7.584;2023-05-29T10:02:48;28.90;47.80
26505;DHT22;19493;48.042;7.584;2023-05-29T10:05:13;29.50;47.30
26505;DHT22;19493;48.042;7.584;2023-05-29T10:07:44;29.30;46.30
26505;DHT22;19493;48.042;7.584;2023-05-29T10:10:12;29.20;46.40
26505;DHT22;19493;48.042;7.584;2023-05-29T10:12:44;29.70;47.20
26505;DHT22;19493;48.042;7.584;2023-05-29T10:15:14;30.40;45.70
26505;DHT22;19493;48.042;7.584;2023-05-29T10:17:49;30.80;45.30
26505;DHT22;19493;48.042;7.584;2023-05-29T10:20:17;31.20;44.40
26505;DHT22;19493;48.042;7.584;2023-05-29T10:22:47;31.20;43.70
26505;DHT22;19493;48.042;7.584;2023-05-29T10:25:13;31.30;44.70
26505;DHT22;19493;48.042;7.584;2023-05-29T10:27:41;31.70;43.80
26505;DHT22;19493;48.042;7.584;2023-05-29T10:31:09;32.20;43.90
26505;DHT22;19493;48.042;7.584;2023-05-29T10:33:33;32.40;41.80
26505;DHT22;19493;48.042;7.584;2023-05-29T10:36:19;32.60;39.80
26505;DHT22;19493;48.042;7.584;2023-05-29T10:38:48;32.20;39.60
26505;DHT22;19493;48.042;7.584;2023-05-29T10:43:56;31.70;39.70
26505;DHT22;19493;48.042;7.584;2023-05-29T10:49:15;32.50;39.70
26505;DHT22;19493;48.042;7.584;2023-05-29T10:51:41;32.50;38.90
26505;DHT22;19493;48.042;7.584;2023-05-29T10:54:07;31.90;40.80
26505;DHT22;19493;48.042;7.584;2023-05-29T10:56:32;32.30;40.30
26505;DHT22;19493;48.042;7.584;2023-05-29T10:58:59;32.60;40.70
26505;DHT22;19493;48.042;7.584;2023-05-29T11:01:28;32.70;39.50
26505;DHT22;19493;48.042;7.584;2023-05-29T11:06:41;32.70;40.30
26505;DHT22;19493;48.042;7.584;2023-05-29T11:09:30;33.00;39.80
26505;DHT22;19493;48.042;7.584;2023-05-29T11:12:22;32.80;39.20
26505;DHT22;19493;48.042;7.584;2023-05-29T11:17:32;33.50;38.50
26505;DHT22;19493;48.042;7.584;2023-05-29T11:20:02;33.70;37.80
26505;DHT22;19493;48.042;7.584;2023-05-29T11:25:07;33.70;38.00
26505;DHT22;19493;48.042;7.584;2023-05-29T11:27:33;33.80;37.40
26505;DHT22;19493;48.042;7.584;2023-05-29T11:29:59;34.00;37.40
26505;DHT22;19493;48.042;7.584;2023-05-29T11:32:27;34.30;36.90
26505;DHT22;19493;48.042;7.584;2023-05-29T11:34:56;34.40;36.60
26505;DHT22;19493;48.042;7.584;2023-05-29T11:37:24;33.90;35.90
26505;DHT22;19493;48.042;7.584;2023-05-29T11:39:51;34.00;36.70
26505;DHT22;19493;48.042;7.584;2023-05-29T11:42:16;34.30;36.80
26505;DHT22;19493;48.042;7.584;2023-05-29T11:44:42;34.80;36.60
26505;DHT22;19493;48.042;7.584;2023-05-29T11:47:08;34.70;36.40
26505;DHT22;19493;48.042;7.584;2023-05-29T11:49:35;34.70;35.40
26505;DHT22;19493;48.042;7.584;2023-05-29T11:52:11;34.50;35.20
26505;DHT22;19493;48.042;7.584;2023-05-29T11:54:37;34.20;35.70
26505;DHT22;19493;48.042;7.584;2023-05-29T11:57:03;34.10;36.20
26505;DHT22;19493;48.042;7.584;2023-05-29T11:59:34;34.80;35.90
26505;DHT22;19493;48.042;7.584;2023-05-29T12:02:02;35.40;35.00
26505;DHT22;19493;48.042;7.584;2023-05-29T12:04:28;35.10;35.00
26505;DHT22;19493;48.042;7.584;2023-05-29T12:06:54;35.70;36.70
26505;DHT22;19493;48.042;7.584;2023-05-29T12:09:27;35.60;34.00
26505;DHT22;19493;48.042;7.584;2023-05-29T12:12:02;35.70;35.10
26505;DHT22;19493;48.042;7.584;2023-05-29T12:14:28;35.20;33.30
26505;DHT22;19493;48.042;7.584;2023-05-29T12:16:54;35.10;32.70
26505;DHT22;19493;48.042;7.584;2023-05-29T12:19:20;35.00;32.50
26505;DHT22;19493;48.042;7.584;2023-05-29T12:21:45;35.70;33.00
26505;DHT22;19493;48.042;7.584;2023-05-29T12:24:11;36.30;32.40
26505;DHT22;19493;48.042;7.584;2023-05-29T12:26:37;35.60;32.00
26505;DHT22;19493;48.042;7.584;2023-05-29T12:29:03;35.80;32.70
26505;DHT22;19493;48.042;7.584;2023-05-29T12:31:31;35.30;33.10
26505;DHT22;19493;48.042;7.584;2023-05-29T12:34:11;35.20;32.50
26505;DHT22;19493;48.042;7.584;2023-05-29T12:36:41;35.40;33.50
26505;DHT22;19493;48.042;7.584;2023-05-29T12:39:07;36.60;33.60
26505;DHT22;19493;48.042;7.584;2023-05-29T12:41:35;36.70;30.40
26505;DHT22;19493;48.042;7.584;2023-05-29T12:44:03;36.50;31.30
26505;DHT22;19493;48.042;7.584;2023-05-29T12:46:36;36.50;32.30
26505;DHT22;19493;48.042;7.584;2023-05-29T12:49:12;36.40;31.10
26505;DHT22;19493;48.042;7.584;2023-05-29T12:51:41;36.80;32.60
26505;DHT22;19493;48.042;7.584;2023-05-29T12:54:07;36.60;31.70
26505;DHT22;19493;48.042;7.584;2023-05-29T12:56:32;37.00;31.90
26505;DHT22;19493;48.042;7.584;2023-05-29T12:58:58;37.00;32.10
26505;DHT22;19493;48.042;7.584;2023-05-29T13:01:23;36.40;31.40
26505;DHT22;19493;48.042;7.584;2023-05-29T13:03:49;36.20;31.60
26505;DHT22;19493;48.042;7.584;2023-05-29T13:06:15;36.40;32.80
26505;DHT22;19493;48.042;7.584;2023-05-29T13:08:41;37.10;32.40
26505;DHT22;19493;48.042;7.584;2023-05-29T13:11:07;36.90;33.40
26505;DHT22;19493;48.042;7.584;2023-05-29T13:13:32;36.90;32.00
26505;DHT22;19493;48.042;7.584;2023-05-29T13:15:58;36.70;31.50
26505;DHT22;19493;48.042;7.584;2023-05-29T13:18:23;37.10;32.10
26505;DHT22;19493;48.042;7.584;2023-05-29T13:20:49;37.10;31.90
26505;DHT22;19493;48.042;7.584;2023-05-29T13:23:15;36.60;31.70
26505;DHT22;19493;48.042;7.584;2023-05-29T13:25:40;36.10;32.40
26505;DHT22;19493;48.042;7.584;2023-05-29T13:28:06;36.60;32.20
26505;DHT22;19493;48.042;7.584;2023-05-29T13:30:31;36.30;33.80
26505;DHT22;19493;48.042;7.584;2023-05-29T13:32:57;36.60;32.10
26505;DHT22;19493;48.042;7.584;2023-05-29T13:35:22;36.20;31.60
26505;DHT22;19493;48.042;7.584;2023-05-29T13:37:48;36.40;31.60
26505;DHT22;19493;48.042;7.584;2023-05-29T13:40:14;36.80;31.80
26505;DHT22;19493;48.042;7.584;2023-05-29T13:42:40;37.50;32.10
26505;DHT22;19493;48.042;7.584;2023-05-29T13:45:07;38.20;31.00
26505;DHT22;19493;48.042;7.584;2023-05-29T13:47:33;37.90;30.00
26505;DHT22;19493;48.042;7.584;2023-05-29T13:49:59;37.50;30.40
26505;DHT22;19493;48.042;7.584;2023-05-29T13:52:25;37.00;30.70
26505;DHT22;19493;48.042;7.584;2023-05-29T13:54:51;37.00;30.90
26505;DHT22;19493;48.042;7.584;2023-05-29T13:57:17;36.60;31.50
26505;DHT22;19493;48.042;7.584;2023-05-29T13:59:42;36.90;30.90
26505;DHT22;19493;48.042;7.584;2023-05-29T14:02:08;36.80;31.10
26505;DHT22;19493;48.042;7.584;2023-05-29T14:04:34;37.00;31.50
26505;DHT22;19493;48.042;7.584;2023-05-29T14:07:00;37.20;31.40
26505;DHT22;19493;48.042;7.584;2023-05-29T14:09:26;37.50;31.10
26505;DHT22;19493;48.042;7.584;2023-05-29T14:11:55;37.50;30.30
26505;DHT22;19493;48.042;7.584;2023-05-29T14:14:22;37.40;30.30
26505;DHT22;19493;48.042;7.584;2023-05-29T14:16:49;36.30;31.20
26505;DHT22;19493;48.042;7.584;2023-05-29T14:19:14;36.50;31.40
26505;DHT22;19493;48.042;7.584;2023-05-29T14:21:40;37.10;30.80
26505;DHT22;19493;48.042;7.584;2023-05-29T14:24:05;37.40;31.60
26505;DHT22;19493;48.042;7.584;2023-05-29T14:26:32;36.70;30.40
26505;DHT22;19493;48.042;7.584;2023-05-29T14:28:58;36.10;30.50
26505;DHT22;19493;48.042;7.584;2023-05-29T14:31:23;36.50;30.40
26505;DHT22;19493;48.042;7.584;2023-05-29T14:33:49;35.90;30.40
26505;DHT22;19493;48.042;7.584;2023-05-29T14:36:15;35.90;31.00
26505;DHT22;19493;48.042;7.584;2023-05-29T14:38:40;35.60;31.00
26505;DHT22;19493;48.042;7.584;2023-05-29T14:41:06;36.00;31.30
26505;DHT22;19493;48.042;7.584;2023-05-29T14:43:32;36.30;30.50
26505;DHT22;19493;48.042;7.584;2023-05-29T14:45:58;36.30;30.90
26505;DHT22;19493;48.042;7.584;2023-05-29T14:48:23;36.80;31.30
26505;DHT22;19493;48.042;7.584;2023-05-29T14:50:49;36.70;29.80
26505;DHT22;19493;48.042;7.584;2023-05-29T14:53:14;35.50;30.50
26505;DHT22;19493;48.042;7.584;2023-05-29T14:55:40;35.90;30.40
26505;DHT22;19493;48.042;7.584;2023-05-29T14:58:06;36.00;30.30
26505;DHT22;19493;48.042;7.584;2023-05-29T15:00:31;35.80;30.20
26505;DHT22;19493;48.042;7.584;2023-05-29T15:02:57;35.40;30.10
26505;DHT22;19493;48.042;7.584;2023-05-29T15:05:25;35.20;30.60
26505;DHT22;19493;48.042;7.584;2023-05-29T15:07:52;35.40;30.70
26505;DHT22;19493;48.042;7.584;2023-05-29T15:10:20;35.20;30.70
26505;DHT22;19493;48.042;7.584;2023-05-29T15:12:46;35.70;30.80
26505;DHT22;19493;48.042;7.584;2023-05-29T15:15:12;36.10;30.60
26505;DHT22;19493;48.042;7.584;2023-05-29T15:17:37;35.60;30.40
26505;DHT22;19493;48.042;7.584;2023-05-29T15:20:05;35.50;30.40
26505;DHT22;19493;48.042;7.584;2023-05-29T15:22:31;35.20;30.60
26505;DHT22;19493;48.042;7.584;2023-05-29T15:24:56;35.20;31.10
26505;DHT22;19493;48.042;7.584;2023-05-29T15:27:22;35.30;31.00
26505;DHT22;19493;48.042;7.584;2023-05-29T15:29:47;35.50;30.30
26505;DHT22;19493;48.042;7.584;2023-05-29T15:32:13;35.30;30.80
26505;DHT22;19493;48.042;7.584;2023-05-29T15:34:39;35.30;30.70
26505;DHT22;19493;48.042;7.584;2023-05-29T15:37:05;35.60;31.70
26505;DHT22;19493;48.042;7.584;2023-05-29T15:39:31;35.10;29.40
26505;DHT22;19493;48.042;7.584;2023-05-29T15:41:57;34.50;31.30
26505;DHT22;19493;48.042;7.584;2023-05-29T15:44:22;34.60;32.20
26505;DHT22;19493;48.042;7.584;2023-05-29T15:46:48;33.90;32.10
26505;DHT22;19493;48.042;7.584;2023-05-29T15:49:13;33.80;32.60
26505;DHT22;19493;48.042;7.584;2023-05-29T15:51:39;33.30;32.50
26505;DHT22;19493;48.042;7.584;2023-05-29T15:54:06;33.10;32.70
26505;DHT22;19493;48.042;7.584;2023-05-29T15:56:32;33.60;32.70
26505;DHT22;19493;48.042;7.584;2023-05-29T15:58:57;33.60;32.90
26505;DHT22;19493;48.042;7.584;2023-05-29T16:01:23;33.80;32.90